Winnebago Heights, Iowa
Current Conditions -  °F | °C
As of 3:53 AM on Saturday 29 Nov 2014 (Local Time) from KMCW Reporting Station
Haze Haze  
Wind Chill: 15°   Ceiling: 200
Heat Index: 23°   Visibility: 3mi
Dew Point: 22°   Wind: 7mph
Humidity: 96%   Direction: 140°SE
Pressure: 29.56"   Gusts: NA
Location:  43.1451°N, 93.1385°W
Report Text: KMCW 290953Z AUTO 14006KT 3SM BR OVC002 M05/M06 A2956 RMK AO2 SLP020 T10501056
Loading
Personal Weather Stations






























Interactive Weather Map New forecast layout! Learn more

10-Day Weather Forecast

Advertisements
Track Severe Weather on mobile